sensor_id;sensor_type;location;lat;lon;timestamp;P1;durP1;ratioP1;P2;durP2;ratioP2
53056;SDS011;38940;50.096;4.012;2022-11-15T00:00:25;85.57;;;79.38;;
53056;SDS011;38940;50.096;4.012;2022-11-15T00:02:52;83.07;;;77.32;;
53056;SDS011;38940;50.096;4.012;2022-11-15T00:05:18;79.47;;;73.75;;
53056;SDS011;38940;50.096;4.012;2022-11-15T00:07:44;68.20;;;63.08;;
53056;SDS011;38940;50.096;4.012;2022-11-15T00:10:10;78.78;;;72.43;;
53056;SDS011;38940;50.096;4.012;2022-11-15T00:12:36;79.38;;;73.07;;
53056;SDS011;38940;50.096;4.012;2022-11-15T00:15:02;82.53;;;76.47;;
53056;SDS011;38940;50.096;4.012;2022-11-15T00:17:29;78.47;;;72.00;;
53056;SDS011;38940;50.096;4.012;2022-11-15T00:19:55;77.43;;;72.00;;
53056;SDS011;38940;50.096;4.012;2022-11-15T00:22:21;76.47;;;71.13;;
53056;SDS011;38940;50.096;4.012;2022-11-15T00:24:47;78.60;;;72.85;;
53056;SDS011;38940;50.096;4.012;2022-11-15T00:27:13;80.95;;;74.95;;
53056;SDS011;38940;50.096;4.012;2022-11-15T00:29:39;75.93;;;70.47;;
53056;SDS011;38940;50.096;4.012;2022-11-15T00:32:09;78.82;;;73.30;;
53056;SDS011;38940;50.096;4.012;2022-11-15T00:34:35;83.55;;;77.20;;
53056;SDS011;38940;50.096;4.012;2022-11-15T00:37:01;75.13;;;69.80;;
53056;SDS011;38940;50.096;4.012;2022-11-15T00:39:27;87.45;;;80.10;;
53056;SDS011;38940;50.096;4.012;2022-11-15T00:41:53;88.03;;;81.90;;
53056;SDS011;38940;50.096;4.012;2022-11-15T00:44:19;85.63;;;79.57;;
53056;SDS011;38940;50.096;4.012;2022-11-15T00:46:45;85.25;;;79.38;;
53056;SDS011;38940;50.096;4.012;2022-11-15T00:49:11;81.10;;;74.93;;
53056;SDS011;38940;50.096;4.012;2022-11-15T00:51:37;83.00;;;76.30;;
53056;SDS011;38940;50.096;4.012;2022-11-15T00:54:03;92.50;;;84.93;;
53056;SDS011;38940;50.096;4.012;2022-11-15T00:56:29;87.85;;;80.75;;
53056;SDS011;38940;50.096;4.012;2022-11-15T00:58:55;80.40;;;74.15;;
53056;SDS011;38940;50.096;4.012;2022-11-15T01:01:21;79.18;;;73.20;;
53056;SDS011;38940;50.096;4.012;2022-11-15T01:03:47;89.13;;;82.40;;
53056;SDS011;38940;50.096;4.012;2022-11-15T01:06:13;80.95;;;74.18;;
53056;SDS011;38940;50.096;4.012;2022-11-15T01:08:39;66.72;;;62.15;;
53056;SDS011;38940;50.096;4.012;2022-11-15T01:11:07;78.75;;;72.85;;
53056;SDS011;38940;50.096;4.012;2022-11-15T01:13:34;71.78;;;66.40;;
53056;SDS011;38940;50.096;4.012;2022-11-15T01:16:07;69.70;;;64.70;;
53056;SDS011;38940;50.096;4.012;2022-11-15T01:18:34;65.75;;;61.00;;
53056;SDS011;38940;50.096;4.012;2022-11-15T01:21:04;68.40;;;63.28;;
53056;SDS011;38940;50.096;4.012;2022-11-15T01:23:30;66.35;;;61.17;;
53056;SDS011;38940;50.096;4.012;2022-11-15T01:25:59;75.80;;;70.32;;
53056;SDS011;38940;50.096;4.012;2022-11-15T01:28:28;66.60;;;61.80;;
53056;SDS011;38940;50.096;4.012;2022-11-15T01:30:57;77.55;;;72.07;;
53056;SDS011;38940;50.096;4.012;2022-11-15T01:33:23;77.13;;;71.43;;
53056;SDS011;38940;50.096;4.012;2022-11-15T01:35:49;75.40;;;70.05;;
53056;SDS011;38940;50.096;4.012;2022-11-15T01:38:15;74.18;;;69.10;;
53056;SDS011;38940;50.096;4.012;2022-11-15T01:40:41;74.78;;;69.32;;
53056;SDS011;38940;50.096;4.012;2022-11-15T01:43:23;76.30;;;70.85;;
53056;SDS011;38940;50.096;4.012;2022-11-15T01:45:50;80.15;;;74.65;;
53056;SDS011;38940;50.096;4.012;2022-11-15T01:48:18;68.80;;;64.10;;
53056;SDS011;38940;50.096;4.012;2022-11-15T01:50:44;61.63;;;57.10;;
53056;SDS011;38940;50.096;4.012;2022-11-15T01:53:10;64.65;;;60.03;;
53056;SDS011;38940;50.096;4.012;2022-11-15T01:55:37;69.95;;;65.15;;
53056;SDS011;38940;50.096;4.012;2022-11-15T01:58:03;54.42;;;50.35;;
53056;SDS011;38940;50.096;4.012;2022-11-15T02:00:30;58.45;;;54.45;;
53056;SDS011;38940;50.096;4.012;2022-11-15T02:02:56;52.85;;;49.13;;
53056;SDS011;38940;50.096;4.012;2022-11-15T02:05:23;59.90;;;55.50;;
53056;SDS011;38940;50.096;4.012;2022-11-15T02:07:49;55.03;;;50.88;;
53056;SDS011;38940;50.096;4.012;2022-11-15T02:10:19;57.03;;;53.00;;
53056;SDS011;38940;50.096;4.012;2022-11-15T02:12:46;50.55;;;46.97;;
53056;SDS011;38940;50.096;4.012;2022-11-15T02:15:12;45.22;;;42.10;;
53056;SDS011;38940;50.096;4.012;2022-11-15T02:30:42;49.60;;;46.10;;
53056;SDS011;38940;50.096;4.012;2022-11-15T02:41:03;51.42;;;47.20;;
53056;SDS011;38940;50.096;4.012;2022-11-15T02:43:49;51.67;;;48.10;;
53056;SDS011;38940;50.096;4.012;2022-11-15T02:49:19;52.42;;;48.58;;
53056;SDS011;38940;50.096;4.012;2022-11-15T02:51:46;57.97;;;53.92;;
53056;SDS011;38940;50.096;4.012;2022-11-15T02:54:24;51.80;;;48.05;;
53056;SDS011;38940;50.096;4.012;2022-11-15T02:56:54;60.47;;;56.17;;
53056;SDS011;38940;50.096;4.012;2022-11-15T03:02:14;66.65;;;62.05;;
53056;SDS011;38940;50.096;4.012;2022-11-15T03:07:18;68.97;;;64.15;;
53056;SDS011;38940;50.096;4.012;2022-11-15T03:09:54;68.72;;;64.05;;
53056;SDS011;38940;50.096;4.012;2022-11-15T03:15:01;50.00;;;46.50;;
53056;SDS011;38940;50.096;4.012;2022-11-15T03:17:35;57.05;;;52.92;;
53056;SDS011;38940;50.096;4.012;2022-11-15T03:20:04;52.53;;;48.47;;
53056;SDS011;38940;50.096;4.012;2022-11-15T03:22:33;52.30;;;48.72;;
53056;SDS011;38940;50.096;4.012;2022-11-15T03:25:02;53.05;;;49.40;;
53056;SDS011;38940;50.096;4.012;2022-11-15T03:27:35;58.30;;;54.08;;
53056;SDS011;38940;50.096;4.012;2022-11-15T03:30:04;58.75;;;54.85;;
53056;SDS011;38940;50.096;4.012;2022-11-15T03:32:31;58.28;;;53.05;;
53056;SDS011;38940;50.096;4.012;2022-11-15T03:35:09;65.53;;;60.85;;
53056;SDS011;38940;50.096;4.012;2022-11-15T03:40:08;51.92;;;48.15;;
53056;SDS011;38940;50.096;4.012;2022-11-15T03:42:48;68.13;;;63.35;;
53056;SDS011;38940;50.096;4.012;2022-11-15T03:45:18;68.93;;;64.22;;
53056;SDS011;38940;50.096;4.012;2022-11-15T03:50:15;62.85;;;58.65;;
53056;SDS011;38940;50.096;4.012;2022-11-15T03:52:43;72.53;;;67.53;;
53056;SDS011;38940;50.096;4.012;2022-11-15T03:55:12;88.80;;;82.65;;
53056;SDS011;38940;50.096;4.012;2022-11-15T03:57:39;70.85;;;66.18;;
53056;SDS011;38940;50.096;4.012;2022-11-15T04:00:05;65.18;;;60.55;;
53056;SDS011;38940;50.096;4.012;2022-11-15T04:02:31;50.88;;;47.28;;
53056;SDS011;38940;50.096;4.012;2022-11-15T04:04:57;67.65;;;62.45;;
53056;SDS011;38940;50.096;4.012;2022-11-15T04:07:23;62.20;;;58.10;;
53056;SDS011;38940;50.096;4.012;2022-11-15T04:09:49;90.20;;;83.88;;
53056;SDS011;38940;50.096;4.012;2022-11-15T04:12:27;92.18;;;86.15;;
53056;SDS011;38940;50.096;4.012;2022-11-15T04:14:59;102.65;;;95.97;;
53056;SDS011;38940;50.096;4.012;2022-11-15T04:20:04;77.82;;;72.70;;
53056;SDS011;38940;50.096;4.012;2022-11-15T04:22:51;65.82;;;61.28;;
53056;SDS011;38940;50.096;4.012;2022-11-15T04:25:36;104.80;;;97.30;;
53056;SDS011;38940;50.096;4.012;2022-11-15T04:28:02;98.53;;;92.07;;
53056;SDS011;38940;50.096;4.012;2022-11-15T04:30:28;106.03;;;99.10;;
53056;SDS011;38940;50.096;4.012;2022-11-15T04:32:54;105.47;;;98.00;;
53056;SDS011;38940;50.096;4.012;2022-11-15T04:35:20;113.50;;;106.10;;
53056;SDS011;38940;50.096;4.012;2022-11-15T04:37:46;100.85;;;94.05;;
53056;SDS011;38940;50.096;4.012;2022-11-15T04:40:12;109.75;;;102.63;;
53056;SDS011;38940;50.096;4.012;2022-11-15T04:42:40;87.68;;;81.68;;
53056;SDS011;38940;50.096;4.012;2022-11-15T04:45:07;78.72;;;73.63;;
53056;SDS011;38940;50.096;4.012;2022-11-15T04:47:33;97.20;;;90.90;;
53056;SDS011;38940;50.096;4.012;2022-11-15T04:49:59;73.38;;;68.35;;
53056;SDS011;38940;50.096;4.012;2022-11-15T04:52:25;79.75;;;74.43;;
53056;SDS011;38940;50.096;4.012;2022-11-15T04:54:52;100.03;;;92.85;;
53056;SDS011;38940;50.096;4.012;2022-11-15T04:57:18;106.35;;;99.32;;
53056;SDS011;38940;50.096;4.012;2022-11-15T04:59:44;87.90;;;82.18;;
53056;SDS011;38940;50.096;4.012;2022-11-15T05:02:10;96.45;;;90.10;;
53056;SDS011;38940;50.096;4.012;2022-11-15T05:04:36;68.10;;;63.42;;
53056;SDS011;38940;50.096;4.012;2022-11-15T05:07:02;102.47;;;95.68;;
53056;SDS011;38940;50.096;4.012;2022-11-15T05:09:30;117.65;;;109.93;;
53056;SDS011;38940;50.096;4.012;2022-11-15T05:11:56;84.03;;;78.53;;
53056;SDS011;38940;50.096;4.012;2022-11-15T05:14:22;82.93;;;77.43;;
53056;SDS011;38940;50.096;4.012;2022-11-15T05:16:48;86.32;;;80.53;;
53056;SDS011;38940;50.096;4.012;2022-11-15T05:19:14;65.53;;;61.03;;
53056;SDS011;38940;50.096;4.012;2022-11-15T05:21:40;95.50;;;89.18;;
53056;SDS011;38940;50.096;4.012;2022-11-15T05:24:08;80.80;;;75.47;;
53056;SDS011;38940;50.096;4.012;2022-11-15T05:26:35;96.32;;;89.95;;
53056;SDS011;38940;50.096;4.012;2022-11-15T05:29:01;81.13;;;75.72;;
53056;SDS011;38940;50.096;4.012;2022-11-15T05:31:27;93.45;;;87.43;;
53056;SDS011;38940;50.096;4.012;2022-11-15T05:33:53;95.60;;;89.30;;
53056;SDS011;38940;50.096;4.012;2022-11-15T05:38:46;72.72;;;67.25;;
53056;SDS011;38940;50.096;4.012;2022-11-15T05:41:12;73.13;;;68.00;;
53056;SDS011;38940;50.096;4.012;2022-11-15T05:43:38;66.20;;;61.00;;
53056;SDS011;38940;50.096;4.012;2022-11-15T05:46:05;58.72;;;54.80;;
53056;SDS011;38940;50.096;4.012;2022-11-15T05:48:32;66.60;;;62.25;;
53056;SDS011;38940;50.096;4.012;2022-11-15T05:50:58;60.83;;;56.53;;
53056;SDS011;38940;50.096;4.012;2022-11-15T05:53:25;66.22;;;61.20;;
53056;SDS011;38940;50.096;4.012;2022-11-15T05:55:51;66.45;;;61.45;;
53056;SDS011;38940;50.096;4.012;2022-11-15T05:58:18;66.15;;;60.88;;
53056;SDS011;38940;50.096;4.012;2022-11-15T06:00:45;69.65;;;64.65;;
53056;SDS011;38940;50.096;4.012;2022-11-15T06:03:11;73.03;;;67.95;;
53056;SDS011;38940;50.096;4.012;2022-11-15T06:05:39;70.45;;;65.93;;
53056;SDS011;38940;50.096;4.012;2022-11-15T06:08:05;63.55;;;59.25;;
53056;SDS011;38940;50.096;4.012;2022-11-15T06:10:32;81.95;;;76.00;;
53056;SDS011;38940;50.096;4.012;2022-11-15T06:13:01;75.47;;;70.57;;
53056;SDS011;38940;50.096;4.012;2022-11-15T06:15:28;62.45;;;58.17;;
53056;SDS011;38940;50.096;4.012;2022-11-15T06:17:57;73.57;;;68.78;;
53056;SDS011;38940;50.096;4.012;2022-11-15T06:20:24;82.60;;;76.90;;
53056;SDS011;38940;50.096;4.012;2022-11-15T06:22:50;61.45;;;57.05;;
53056;SDS011;38940;50.096;4.012;2022-11-15T06:25:16;53.72;;;49.90;;
53056;SDS011;38940;50.096;4.012;2022-11-15T06:27:42;61.65;;;57.45;;
53056;SDS011;38940;50.096;4.012;2022-11-15T06:30:09;56.17;;;52.58;;
53056;SDS011;38940;50.096;4.012;2022-11-15T06:32:35;62.22;;;57.92;;
53056;SDS011;38940;50.096;4.012;2022-11-15T06:35:01;65.68;;;61.28;;
53056;SDS011;38940;50.096;4.012;2022-11-15T06:37:27;63.45;;;59.28;;
53056;SDS011;38940;50.096;4.012;2022-11-15T06:39:53;54.85;;;51.28;;
53056;SDS011;38940;50.096;4.012;2022-11-15T06:42:19;58.70;;;54.65;;
53056;SDS011;38940;50.096;4.012;2022-11-15T06:44:45;59.53;;;55.63;;
53056;SDS011;38940;50.096;4.012;2022-11-15T06:47:11;62.97;;;58.17;;
53056;SDS011;38940;50.096;4.012;2022-11-15T06:49:37;66.60;;;62.28;;
53056;SDS011;38940;50.096;4.012;2022-11-15T06:52:03;51.90;;;48.25;;
53056;SDS011;38940;50.096;4.012;2022-11-15T06:54:29;75.50;;;69.85;;
53056;SDS011;38940;50.096;4.012;2022-11-15T06:56:55;54.35;;;50.88;;
53056;SDS011;38940;50.096;4.012;2022-11-15T06:59:21;63.38;;;59.28;;
53056;SDS011;38940;50.096;4.012;2022-11-15T07:01:47;80.90;;;74.70;;
53056;SDS011;38940;50.096;4.012;2022-11-15T07:04:13;68.80;;;64.30;;
53056;SDS011;38940;50.096;4.012;2022-11-15T07:06:39;75.15;;;70.20;;
53056;SDS011;38940;50.096;4.012;2022-11-15T07:09:05;54.83;;;51.15;;
53056;SDS011;38940;50.096;4.012;2022-11-15T07:11:32;79.45;;;74.28;;
53056;SDS011;38940;50.096;4.012;2022-11-15T07:13:59;80.60;;;75.30;;
53056;SDS011;38940;50.096;4.012;2022-11-15T07:16:25;82.30;;;75.95;;
53056;SDS011;38940;50.096;4.012;2022-11-15T07:18:51;97.05;;;90.75;;
53056;SDS011;38940;50.096;4.012;2022-11-15T07:21:17;89.95;;;84.18;;
53056;SDS011;38940;50.096;4.012;2022-11-15T07:23:43;81.28;;;74.97;;
53056;SDS011;38940;50.096;4.012;2022-11-15T07:26:09;83.47;;;77.80;;
53056;SDS011;38940;50.096;4.012;2022-11-15T07:28:35;83.05;;;77.05;;
53056;SDS011;38940;50.096;4.012;2022-11-15T07:31:02;69.68;;;64.95;;
53056;SDS011;38940;50.096;4.012;2022-11-15T07:33:28;65.07;;;60.65;;
53056;SDS011;38940;50.096;4.012;2022-11-15T07:35:58;74.45;;;69.53;;
53056;SDS011;38940;50.096;4.012;2022-11-15T07:38:24;68.57;;;63.88;;
53056;SDS011;38940;50.096;4.012;2022-11-15T07:40:55;91.53;;;85.32;;
53056;SDS011;38940;50.096;4.012;2022-11-15T07:43:22;75.57;;;70.57;;
53056;SDS011;38940;50.096;4.012;2022-11-15T07:45:48;57.67;;;53.92;;
53056;SDS011;38940;50.096;4.012;2022-11-15T07:48:14;86.97;;;81.32;;
53056;SDS011;38940;50.096;4.012;2022-11-15T07:50:40;77.15;;;71.72;;
53056;SDS011;38940;50.096;4.012;2022-11-15T07:53:07;65.88;;;61.58;;
53056;SDS011;38940;50.096;4.012;2022-11-15T07:55:33;65.70;;;61.25;;
53056;SDS011;38940;50.096;4.012;2022-11-15T07:58:03;59.40;;;55.50;;
53056;SDS011;38940;50.096;4.012;2022-11-15T08:00:29;52.90;;;49.40;;
53056;SDS011;38940;50.096;4.012;2022-11-15T08:03:06;73.38;;;68.50;;
53056;SDS011;38940;50.096;4.012;2022-11-15T08:05:32;72.65;;;66.88;;
53056;SDS011;38940;50.096;4.012;2022-11-15T08:07:58;81.22;;;75.50;;
53056;SDS011;38940;50.096;4.012;2022-11-15T08:10:25;105.38;;;98.15;;
53056;SDS011;38940;50.096;4.012;2022-11-15T08:13:04;86.07;;;80.47;;
53056;SDS011;38940;50.096;4.012;2022-11-15T08:15:30;103.10;;;96.22;;
53056;SDS011;38940;50.096;4.012;2022-11-15T08:17:58;76.63;;;71.43;;
53056;SDS011;38940;50.096;4.012;2022-11-15T08:20:25;79.60;;;73.70;;
53056;SDS011;38940;50.096;4.012;2022-11-15T08:22:51;69.22;;;64.63;;
53056;SDS011;38940;50.096;4.012;2022-11-15T08:25:17;74.95;;;69.82;;
53056;SDS011;38940;50.096;4.012;2022-11-15T08:27:43;61.38;;;56.63;;
53056;SDS011;38940;50.096;4.012;2022-11-15T08:30:09;74.00;;;68.97;;
53056;SDS011;38940;50.096;4.012;2022-11-15T08:32:36;79.70;;;73.75;;
53056;SDS011;38940;50.096;4.012;2022-11-15T08:35:02;49.33;;;46.13;;
53056;SDS011;38940;50.096;4.012;2022-11-15T08:37:28;67.93;;;63.25;;
53056;SDS011;38940;50.096;4.012;2022-11-15T08:39:54;56.15;;;51.42;;
53056;SDS011;38940;50.096;4.012;2022-11-15T08:42:20;54.95;;;51.25;;
53056;SDS011;38940;50.096;4.012;2022-11-15T08:44:46;72.00;;;66.68;;
53056;SDS011;38940;50.096;4.012;2022-11-15T08:47:12;66.13;;;61.80;;
53056;SDS011;38940;50.096;4.012;2022-11-15T08:49:38;69.80;;;64.60;;
53056;SDS011;38940;50.096;4.012;2022-11-15T08:52:05;56.95;;;52.72;;
53056;SDS011;38940;50.096;4.012;2022-11-15T08:54:31;52.35;;;47.83;;
53056;SDS011;38940;50.096;4.012;2022-11-15T08:56:57;57.42;;;53.58;;
53056;SDS011;38940;50.096;4.012;2022-11-15T08:59:23;51.75;;;48.38;;
53056;SDS011;38940;50.096;4.012;2022-11-15T09:01:49;58.15;;;54.42;;
53056;SDS011;38940;50.096;4.012;2022-11-15T09:04:15;58.28;;;53.83;;
53056;SDS011;38940;50.096;4.012;2022-11-15T09:06:41;59.38;;;55.53;;
53056;SDS011;38940;50.096;4.012;2022-11-15T09:09:07;63.20;;;58.28;;
53056;SDS011;38940;50.096;4.012;2022-11-15T09:11:33;69.28;;;64.70;;
53056;SDS011;38940;50.096;4.012;2022-11-15T09:13:59;54.10;;;50.55;;
53056;SDS011;38940;50.096;4.012;2022-11-15T09:16:25;70.88;;;66.18;;
53056;SDS011;38940;50.096;4.012;2022-11-15T09:18:52;53.47;;;50.03;;
53056;SDS011;38940;50.096;4.012;2022-11-15T09:21:18;64.53;;;59.90;;
53056;SDS011;38940;50.096;4.012;2022-11-15T09:23:44;74.25;;;68.78;;
53056;SDS011;38940;50.096;4.012;2022-11-15T09:26:10;77.75;;;72.43;;
53056;SDS011;38940;50.096;4.012;2022-11-15T09:28:36;73.85;;;68.95;;
53056;SDS011;38940;50.096;4.012;2022-11-15T09:31:04;75.90;;;71.00;;
53056;SDS011;38940;50.096;4.012;2022-11-15T09:33:30;103.03;;;96.40;;
53056;SDS011;38940;50.096;4.012;2022-11-15T09:36:04;76.20;;;71.25;;
53056;SDS011;38940;50.096;4.012;2022-11-15T09:38:30;87.40;;;81.78;;
53056;SDS011;38940;50.096;4.012;2022-11-15T09:48:40;92.00;;;85.75;;
53056;SDS011;38940;50.096;4.012;2022-11-15T09:51:14;90.22;;;84.03;;
53056;SDS011;38940;50.096;4.012;2022-11-15T09:53:47;70.57;;;65.45;;
53056;SDS011;38940;50.096;4.012;2022-11-15T09:56:16;70.88;;;66.30;;
53056;SDS011;38940;50.096;4.012;2022-11-15T09:58:46;63.67;;;59.17;;
53056;SDS011;38940;50.096;4.012;2022-11-15T10:01:19;66.75;;;62.20;;
53056;SDS011;38940;50.096;4.012;2022-11-15T10:03:49;66.20;;;61.95;;
53056;SDS011;38940;50.096;4.012;2022-11-15T10:06:21;60.88;;;56.65;;
53056;SDS011;38940;50.096;4.012;2022-11-15T10:11:24;93.28;;;87.30;;
53056;SDS011;38940;50.096;4.012;2022-11-15T10:13:52;77.22;;;71.53;;
53056;SDS011;38940;50.096;4.012;2022-11-15T10:21:21;80.60;;;75.35;;
53056;SDS011;38940;50.096;4.012;2022-11-15T10:23:50;81.40;;;75.47;;
53056;SDS011;38940;50.096;4.012;2022-11-15T10:26:16;77.30;;;72.30;;
53056;SDS011;38940;50.096;4.012;2022-11-15T10:28:42;64.75;;;60.42;;
53056;SDS011;38940;50.096;4.012;2022-11-15T10:31:22;75.95;;;71.10;;
53056;SDS011;38940;50.096;4.012;2022-11-15T10:33:48;79.55;;;74.50;;
53056;SDS011;38940;50.096;4.012;2022-11-15T10:36:16;72.60;;;67.93;;
53056;SDS011;38940;50.096;4.012;2022-11-15T10:41:21;96.53;;;90.40;;
53056;SDS011;38940;50.096;4.012;2022-11-15T10:46:32;83.25;;;77.85;;
53056;SDS011;38940;50.096;4.012;2022-11-15T10:51:53;80.18;;;75.03;;
53056;SDS011;38940;50.096;4.012;2022-11-15T10:54:24;69.05;;;64.53;;
53056;SDS011;38940;50.096;4.012;2022-11-15T10:56:51;64.30;;;60.17;;
53056;SDS011;38940;50.096;4.012;2022-11-15T10:59:23;89.30;;;82.93;;
53056;SDS011;38940;50.096;4.012;2022-11-15T11:01:50;85.45;;;79.88;;
53056;SDS011;38940;50.096;4.012;2022-11-15T11:04:16;67.10;;;62.28;;
53056;SDS011;38940;50.096;4.012;2022-11-15T11:06:47;81.07;;;75.82;;
53056;SDS011;38940;50.096;4.012;2022-11-15T11:09:48;78.68;;;73.60;;
53056;SDS011;38940;50.096;4.012;2022-11-15T11:12:09;83.38;;;77.50;;
53056;SDS011;38940;50.096;4.012;2022-11-15T11:14:37;69.15;;;64.22;;
53056;SDS011;38940;50.096;4.012;2022-11-15T11:24:56;85.57;;;80.03;;
53056;SDS011;38940;50.096;4.012;2022-11-15T11:35:03;64.88;;;60.22;;
53056;SDS011;38940;50.096;4.012;2022-11-15T11:42:39;75.90;;;70.80;;
53056;SDS011;38940;50.096;4.012;2022-11-15T11:47:40;107.50;;;99.90;;
53056;SDS011;38940;50.096;4.012;2022-11-15T11:50:17;87.97;;;82.28;;
53056;SDS011;38940;50.096;4.012;2022-11-15T11:55:32;86.35;;;80.82;;
53056;SDS011;38940;50.096;4.012;2022-11-15T12:01:05;89.07;;;83.32;;
53056;SDS011;38940;50.096;4.012;2022-11-15T12:03:38;78.40;;;73.32;;
53056;SDS011;38940;50.096;4.012;2022-11-15T12:06:10;97.95;;;91.70;;
53056;SDS011;38940;50.096;4.012;2022-11-15T12:11:17;102.90;;;96.30;;
53056;SDS011;38940;50.096;4.012;2022-11-15T12:13:43;73.18;;;68.38;;
53056;SDS011;38940;50.096;4.012;2022-11-15T12:18:36;103.03;;;96.30;;
53056;SDS011;38940;50.096;4.012;2022-11-15T12:21:04;99.88;;;92.70;;
53056;SDS011;38940;50.096;4.012;2022-11-15T12:23:32;91.13;;;85.03;;
53056;SDS011;38940;50.096;4.012;2022-11-15T12:26:02;103.35;;;96.13;;
53056;SDS011;38940;50.096;4.012;2022-11-15T12:31:06;114.93;;;106.25;;
53056;SDS011;38940;50.096;4.012;2022-11-15T12:33:38;104.63;;;97.95;;
53056;SDS011;38940;50.096;4.012;2022-11-15T12:36:08;107.25;;;99.90;;
53056;SDS011;38940;50.096;4.012;2022-11-15T12:41:20;98.60;;;92.25;;
53056;SDS011;38940;50.096;4.012;2022-11-15T12:43:47;100.90;;;94.40;;
53056;SDS011;38940;50.096;4.012;2022-11-15T12:46:20;110.68;;;103.35;;
53056;SDS011;38940;50.096;4.012;2022-11-15T12:48:48;91.18;;;85.35;;
53056;SDS011;38940;50.096;4.012;2022-11-15T12:51:15;102.78;;;96.07;;
53056;SDS011;38940;50.096;4.012;2022-11-15T12:53:41;119.22;;;111.45;;
53056;SDS011;38940;50.096;4.012;2022-11-15T12:58:43;77.30;;;72.35;;
53056;SDS011;38940;50.096;4.012;2022-11-15T13:01:52;77.80;;;72.80;;
53056;SDS011;38940;50.096;4.012;2022-11-15T13:11:54;86.32;;;80.78;;
53056;SDS011;38940;50.096;4.012;2022-11-15T13:20:01;103.78;;;96.95;;
53056;SDS011;38940;50.096;4.012;2022-11-15T13:22:29;81.15;;;75.80;;
53056;SDS011;38940;50.096;4.012;2022-11-15T13:28:48;71.30;;;66.70;;
53056;SDS011;38940;50.096;4.012;2022-11-15T13:33:15;75.10;;;70.15;;
53056;SDS011;38940;50.096;4.012;2022-11-15T13:35:45;78.28;;;73.07;;
53056;SDS011;38940;50.096;4.012;2022-11-15T13:38:33;79.40;;;74.28;;
53056;SDS011;38940;50.096;4.012;2022-11-15T13:40:58;108.30;;;101.00;;
53056;SDS011;38940;50.096;4.012;2022-11-15T13:48:38;63.78;;;59.67;;
53056;SDS011;38940;50.096;4.012;2022-11-15T13:51:07;80.43;;;75.25;;
53056;SDS011;38940;50.096;4.012;2022-11-15T13:53:34;78.80;;;73.60;;
53056;SDS011;38940;50.096;4.012;2022-11-15T13:56:02;69.75;;;65.15;;
53056;SDS011;38940;50.096;4.012;2022-11-15T13:58:29;69.22;;;64.45;;
53056;SDS011;38940;50.096;4.012;2022-11-15T14:01:03;64.18;;;59.55;;
53056;SDS011;38940;50.096;4.012;2022-11-15T14:03:30;73.68;;;68.57;;
53056;SDS011;38940;50.096;4.012;2022-11-15T14:08:32;91.90;;;86.00;;
53056;SDS011;38940;50.096;4.012;2022-11-15T14:11:06;70.75;;;66.07;;
53056;SDS011;38940;50.096;4.012;2022-11-15T14:13:32;83.35;;;77.90;;
53056;SDS011;38940;50.096;4.012;2022-11-15T14:16:14;72.05;;;67.35;;
53056;SDS011;38940;50.096;4.012;2022-11-15T14:18:42;64.25;;;60.03;;
53056;SDS011;38940;50.096;4.012;2022-11-15T14:21:09;82.03;;;76.70;;
53056;SDS011;38940;50.096;4.012;2022-11-15T14:23:35;84.18;;;78.32;;
53056;SDS011;38940;50.096;4.012;2022-11-15T14:26:01;76.53;;;71.32;;
53056;SDS011;38940;50.096;4.012;2022-11-15T14:28:28;54.83;;;51.10;;
53056;SDS011;38940;50.096;4.012;2022-11-15T14:30:56;89.03;;;83.13;;
53056;SDS011;38940;50.096;4.012;2022-11-15T14:33:32;79.72;;;74.32;;
53056;SDS011;38940;50.096;4.012;2022-11-15T14:36:02;84.38;;;79.00;;
53056;SDS011;38940;50.096;4.012;2022-11-15T14:38:28;84.40;;;78.80;;
53056;SDS011;38940;50.096;4.012;2022-11-15T14:40:54;93.45;;;86.97;;
53056;SDS011;38940;50.096;4.012;2022-11-15T14:43:21;85.15;;;78.93;;
53056;SDS011;38940;50.096;4.012;2022-11-15T14:45:48;79.70;;;74.28;;
53056;SDS011;38940;50.096;4.012;2022-11-15T14:48:14;75.70;;;69.72;;
53056;SDS011;38940;50.096;4.012;2022-11-15T14:50:40;89.43;;;83.60;;
53056;SDS011;38940;50.096;4.012;2022-11-15T14:53:06;71.95;;;67.20;;
53056;SDS011;38940;50.096;4.012;2022-11-15T14:55:35;73.35;;;68.55;;
53056;SDS011;38940;50.096;4.012;2022-11-15T14:58:02;87.93;;;82.13;;
53056;SDS011;38940;50.096;4.012;2022-11-15T15:00:29;91.65;;;85.57;;
53056;SDS011;38940;50.096;4.012;2022-11-15T15:02:55;94.90;;;88.53;;
53056;SDS011;38940;50.096;4.012;2022-11-15T15:05:22;66.30;;;61.90;;
53056;SDS011;38940;50.096;4.012;2022-11-15T15:07:49;94.10;;;87.95;;
53056;SDS011;38940;50.096;4.012;2022-11-15T15:10:15;82.65;;;77.25;;
53056;SDS011;38940;50.096;4.012;2022-11-15T15:12:43;84.15;;;78.65;;
53056;SDS011;38940;50.096;4.012;2022-11-15T15:15:16;86.13;;;80.43;;
53056;SDS011;38940;50.096;4.012;2022-11-15T15:17:43;112.63;;;105.25;;
53056;SDS011;38940;50.096;4.012;2022-11-15T15:20:09;73.95;;;69.15;;
53056;SDS011;38940;50.096;4.012;2022-11-15T15:22:36;65.07;;;60.80;;
53056;SDS011;38940;50.096;4.012;2022-11-15T15:25:03;67.65;;;63.08;;
53056;SDS011;38940;50.096;4.012;2022-11-15T15:27:29;74.05;;;68.95;;
53056;SDS011;38940;50.096;4.012;2022-11-15T15:29:55;71.13;;;66.40;;
53056;SDS011;38940;50.096;4.012;2022-11-15T15:32:21;60.63;;;56.50;;
53056;SDS011;38940;50.096;4.012;2022-11-15T15:34:47;68.13;;;63.60;;
53056;SDS011;38940;50.096;4.012;2022-11-15T15:37:21;63.08;;;58.97;;
53056;SDS011;38940;50.096;4.012;2022-11-15T15:39:49;69.00;;;64.47;;
53056;SDS011;38940;50.096;4.012;2022-11-15T15:42:15;57.95;;;53.92;;
53056;SDS011;38940;50.096;4.012;2022-11-15T15:44:41;56.42;;;52.70;;
53056;SDS011;38940;50.096;4.012;2022-11-15T15:47:12;63.20;;;58.70;;
53056;SDS011;38940;50.096;4.012;2022-11-15T15:49:39;66.82;;;62.28;;
53056;SDS011;38940;50.096;4.012;2022-11-15T15:52:05;72.07;;;67.38;;
53056;SDS011;38940;50.096;4.012;2022-11-15T15:54:31;65.85;;;61.35;;
53056;SDS011;38940;50.096;4.012;2022-11-15T15:56:57;63.95;;;59.65;;
53056;SDS011;38940;50.096;4.012;2022-11-15T15:59:23;63.67;;;59.47;;
53056;SDS011;38940;50.096;4.012;2022-11-15T16:01:49;65.90;;;61.42;;
53056;SDS011;38940;50.096;4.012;2022-11-15T16:04:15;57.67;;;53.90;;
53056;SDS011;38940;50.096;4.012;2022-11-15T16:06:41;67.88;;;63.15;;
53056;SDS011;38940;50.096;4.012;2022-11-15T16:09:18;65.68;;;60.88;;
53056;SDS011;38940;50.096;4.012;2022-11-15T16:12:08;60.92;;;56.60;;
53056;SDS011;38940;50.096;4.012;2022-11-15T16:14:34;61.17;;;56.95;;
53056;SDS011;38940;50.096;4.012;2022-11-15T16:17:00;68.75;;;64.05;;
53056;SDS011;38940;50.096;4.012;2022-11-15T16:19:26;74.40;;;69.50;;
53056;SDS011;38940;50.096;4.012;2022-11-15T16:21:52;59.05;;;55.15;;
53056;SDS011;38940;50.096;4.012;2022-11-15T16:24:19;64.60;;;60.40;;
53056;SDS011;38940;50.096;4.012;2022-11-15T16:26:45;61.05;;;57.00;;
53056;SDS011;38940;50.096;4.012;2022-11-15T16:29:12;58.20;;;54.47;;
53056;SDS011;38940;50.096;4.012;2022-11-15T16:31:38;81.80;;;76.40;;
53056;SDS011;38940;50.096;4.012;2022-11-15T16:34:04;77.78;;;72.60;;
53056;SDS011;38940;50.096;4.012;2022-11-15T16:36:33;76.82;;;71.90;;
53056;SDS011;38940;50.096;4.012;2022-11-15T16:38:59;61.00;;;57.10;;